Time;durP1;ratioP1;P1;durP2;ratioP2;P2;SDS_P1;SDS_P2;PMS_P1;PMS_P2;Temp;Humidity;BMP_temperature;BMP_pressure;BME280_temperature;BME280_humidity;BME280_pressure;Samples;Min_cycle;Max_cycle;Signal;HPM_P1;HPM_P2
2021/01/27 00:00:30;;;;;;;24.07;9.70;;;;;;;-0.85;76.96;98660.88;1848688;77;21135;-75
2021/01/27 00:02:59;;;;;;;19.85;9.50;;;;;;;-0.85;77.32;98664.92;1848527;77;21168;-76
2021/01/27 00:05:31;;;;;;;19.30;9.25;;;;;;;-0.86;77.29;98664.64;1848541;77;20974;-76
2021/01/27 00:07:59;;;;;;;21.73;9.35;;;;;;;-0.86;77.28;98670.56;1848608;77;21161;-75
2021/01/27 00:10:28;;;;;;;23.95;10.23;;;;;;;-0.86;77.85;98661.14;1836640;77;21119;-77
2021/01/27 00:12:55;;;;;;;23.75;9.83;;;;;;;-0.83;78.06;98668.16;1815277;79;21148;-76
2021/01/27 00:15:32;;;;;;;20.08;8.28;;;;;;;-0.83;77.68;98665.47;1815304;79;21168;-76
2021/01/27 00:18:00;;;;;;;21.55;10.15;;;;;;;-0.83;77.59;98661.42;1815304;79;21108;-76
2021/01/27 00:20:28;;;;;;;22.75;8.68;;;;;;;-0.83;77.87;98657.38;1815241;78;21140;-76
2021/01/27 00:22:57;;;;;;;21.97;10.38;;;;;;;-0.82;77.97;98652.80;1815310;79;21192;-76
2021/01/27 00:25:31;;;;;;;21.77;9.68;;;;;;;-0.82;77.88;98655.50;1815249;77;21276;-76
2021/01/27 00:27:59;;;;;;;24.40;11.57;;;;;;;-0.83;78.01;98649.30;1822260;77;21671;-76
2021/01/27 00:30:30;;;;;;;19.40;9.45;;;;;;;-0.81;77.89;98653.08;1820103;77;21148;-76
2021/01/27 00:32:58;;;;;;;17.17;7.87;;;;;;;-0.80;77.89;98656.86;1820940;78;21139;-77
2021/01/27 00:35:33;;;;;;;20.68;8.98;;;;;;;-0.78;77.55;98653.90;1820730;78;21137;-77
2021/01/27 00:38:07;;;;;;;24.70;10.35;;;;;;;-0.79;77.74;98652.28;1820803;78;21192;-77
2021/01/27 00:40:35;;;;;;;18.40;8.98;;;;;;;-0.77;77.77;98654.17;1820280;78;21683;-78
2021/01/27 00:43:02;;;;;;;16.93;8.45;;;;;;;-0.77;77.60;98640.16;1820834;78;21520;-77
2021/01/27 00:45:30;;;;;;;19.77;9.15;;;;;;;-0.78;77.21;98630.45;1816244;78;21605;-77
2021/01/27 00:47:57;;;;;;;22.00;9.40;;;;;;;-0.79;77.02;98627.48;1816686;78;21536;-77
2021/01/27 00:50:25;;;;;;;21.12;9.73;;;;;;;-0.78;77.17;98629.11;1820709;78;21355;-77
2021/01/27 00:52:52;;;;;;;25.02;11.18;;;;;;;-0.77;77.34;98629.92;1820638;78;21706;-76
2021/01/27 00:55:26;;;;;;;19.85;9.65;;;;;;;-0.77;77.38;98626.69;1817370;77;21065;-77
2021/01/27 00:57:54;;;;;;;18.82;8.60;;;;;;;-0.77;77.39;98629.92;1836659;78;21632;-76
2021/01/27 01:00:29;;;;;;;17.70;8.25;;;;;;;-0.78;77.16;98623.72;1837626;78;21089;-76
2021/01/27 01:02:58;;;;;;;17.02;8.23;;;;;;;-0.78;77.10;98616.98;1809783;78;21601;-76
2021/01/27 01:05:34;;;;;;;17.48;8.70;;;;;;;-0.77;77.34;98621.30;1837698;78;21537;-76
2021/01/27 01:08:01;;;;;;;15.63;7.87;;;;;;;-0.77;77.27;98621.30;1837357;78;21105;-76
2021/01/27 01:10:33;;;;;;;18.32;8.18;;;;;;;-0.78;76.78;98613.47;1837677;78;21564;-76
2021/01/27 01:13:03;;;;;;;16.87;8.40;;;;;;;-0.80;78.07;98607.00;1838164;78;21547;-77
2021/01/27 01:15:30;;;;;;;14.70;8.13;;;;;;;-0.77;77.31;98609.70;1837988;78;21372;-77
2021/01/27 01:17:58;;;;;;;19.27;7.83;;;;;;;-0.75;77.10;98616.98;1837799;78;21101;-76
2021/01/27 01:20:26;;;;;;;15.70;7.92;;;;;;;-0.76;77.14;98613.48;1837882;78;21148;-76
2021/01/27 01:22:56;;;;;;;18.67;8.43;;;;;;;-0.77;78.10;98613.21;1837705;78;21049;-76
2021/01/27 01:25:27;;;;;;;18.25;7.85;;;;;;;-0.74;77.42;98609.98;1837923;78;21165;-75
2021/01/27 01:27:55;;;;;;;17.85;8.93;;;;;;;-0.75;77.41;98608.91;1837579;78;21390;-75
2021/01/27 01:30:30;;;;;;;17.15;8.50;;;;;;;-0.75;77.44;98610.25;1837857;78;21076;-75
2021/01/27 01:33:02;;;;;;;17.12;9.03;;;;;;;-0.76;77.61;98601.36;1837895;78;21105;-75
2021/01/27 01:35:30;;;;;;;18.65;9.23;;;;;;;-0.77;77.60;98594.34;1837974;78;21187;-80
2021/01/27 01:37:57;;;;;;;16.23;8.10;;;;;;;-0.78;77.48;98591.91;1837884;78;21136;-85
2021/01/27 01:40:28;;;;;;;20.25;9.93;;;;;;;-0.80;77.85;98584.63;1837138;77;21725;-76
2021/01/27 01:43:19;;;;;;;15.28;7.53;;;;;;;-0.81;77.85;98581.67;1820032;77;21108;-76
2021/01/27 01:45:53;;;;;;;16.95;8.63;;;;;;;-0.84;77.90;98584.35;1836911;77;21109;-77
2021/01/27 01:48:41;;;;;;;19.65;9.05;;;;;;;-0.85;77.87;98586.77;1818095;78;21014;-76
2021/01/27 01:51:37;;;;;;;16.45;8.93;;;;;;;-0.86;78.40;98579.77;1818342;78;21101;-76
2021/01/27 01:54:38;;;;;;;18.23;8.83;;;;;;;-0.87;78.29;98579.48;1818480;78;21149;-76
2021/01/27 01:57:11;;;;;;;19.10;8.70;;;;;;;-0.90;78.26;98575.17;1848988;77;21025;-77
2021/01/27 01:59:39;;;;;;;18.87;8.88;;;;;;;-0.91;78.74;98573.02;1824149;77;21567;-76
2021/01/27 02:02:08;;;;;;;23.90;10.98;;;;;;;-0.90;78.87;98574.63;1849388;77;21101;-77
2021/01/27 02:04:47;;;;;;;22.52;10.60;;;;;;;-0.91;78.80;98578.41;1849473;77;21104;-77
2021/01/27 02:07:14;;;;;;;22.93;10.85;;;;;;;-0.92;78.88;98583.52;1849397;77;21400;-77
2021/01/27 02:09:42;;;;;;;23.20;11.50;;;;;;;-0.93;79.06;98583.24;1849118;77;21069;-77
2021/01/27 02:12:31;;;;;;;20.88;10.93;;;;;;;-0.92;79.05;98589.44;1849229;77;21437;-77
2021/01/27 02:15:10;;;;;;;23.05;11.15;;;;;;;-0.92;79.04;98586.21;1848057;77;21001;-76
2021/01/27 02:17:46;;;;;;;19.65;9.30;;;;;;;-0.92;79.21;98578.66;1849031;77;20954;-76
2021/01/27 02:20:42;;;;;;;22.82;10.32;;;;;;;-0.94;79.29;98576.23;1849185;77;21045;-76
2021/01/27 02:26:35;;;;;;;21.62;10.53;;;;;;;-0.99;79.26;98574.88;1817223;78;21058;-76
2021/01/27 02:29:38;;;;;;;23.80;10.53;;;;;;;-1.02;79.53;98577.55;1818928;78;21146;-76
2021/01/27 02:32:43;;;;;;;29.25;11.60;;;;;;;-1.05;79.53;98567.84;1820290;77;21099;-76
2021/01/27 02:35:40;;;;;;;24.02;11.43;;;;;;;-1.09;79.54;98570.79;1820074;78;21781;-76
2021/01/27 02:38:31;;;;;;;20.02;10.03;;;;;;;-1.10;79.75;98571.33;1820153;78;21155;-76
2021/01/27 02:41:05;;;;;;;23.27;10.98;;;;;;;-1.14;79.80;98564.84;1820273;78;21451;-76
2021/01/27 02:43:36;;;;;;;25.65;11.73;;;;;;;-1.18;79.97;98571.86;1811686;78;21583;-76
2021/01/27 02:46:37;;;;;;;28.47;12.10;;;;;;;-1.20;80.75;98567.27;1811455;79;21550;-74
2021/01/27 02:49:19;;;;;;;26.55;11.22;;;;;;;-1.20;80.60;98567.81;1782771;79;21520;-74
2021/01/27 02:52:06;;;;;;;32.00;11.83;;;;;;;-1.21;80.59;98577.77;1811800;79;20994;-75
2021/01/27 02:54:39;;;;;;;36.03;13.75;;;;;;;-1.22;81.29;98564.57;1811677;79;21540;-75
2021/01/27 02:57:24;;;;;;;32.70;14.05;;;;;;;-1.20;81.12;98563.23;1873725;76;22736;-74
2021/01/27 03:00:00;;;;;;;33.63;13.08;;;;;;;-1.23;81.06;98573.72;1837332;77;20932;-74
2021/01/27 03:02:42;;;;;;;35.90;12.30;;;;;;;-1.26;81.00;98571.55;1841708;78;21801;-74
2021/01/27 03:05:30;;;;;;;31.05;12.37;;;;;;;-1.26;81.06;98566.16;1841346;78;21610;-75
2021/01/27 03:08:09;;;;;;;30.27;12.78;;;;;;;-1.27;81.09;98564.01;1841722;78;21122;-75
2021/01/27 03:10:41;;;;;;;31.17;14.00;;;;;;;-1.28;81.21;98563.73;1841706;77;21015;-74
2021/01/27 03:13:09;;;;;;;35.88;14.13;;;;;;;-1.28;81.90;98552.97;1841850;78;20996;-74
2021/01/27 03:15:37;;;;;;;41.85;16.00;;;;;;;-1.29;81.68;98542.45;1811683;78;22292;-73
2021/01/27 03:18:09;;;;;;;37.35;14.70;;;;;;;-1.30;81.55;98540.84;1841650;78;20932;-73
2021/01/27 03:20:39;;;;;;;28.60;12.95;;;;;;;-1.31;81.65;98544.06;1832897;76;21556;-75
2021/01/27 03:23:22;;;;;;;25.08;12.05;;;;;;;-1.34;81.67;98535.98;1818304;78;21566;-75
2021/01/27 03:26:13;;;;;;;24.32;12.07;;;;;;;-1.37;81.67;98539.20;1797948;78;20990;-76
2021/01/27 03:29:07;;;;;;;22.93;10.08;;;;;;;-1.38;81.76;98542.15;1797847;79;21795;-77
2021/01/27 03:31:34;;;;;;;24.72;11.30;;;;;;;-1.39;82.32;98542.69;1796983;79;21013;-77
2021/01/27 03:34:11;;;;;;;40.28;17.67;;;;;;;-1.40;82.20;98545.10;1797935;79;21448;-77
2021/01/27 03:36:47;;;;;;;47.03;18.98;;;;;;;-1.41;82.18;98550.75;1797651;79;20997;-76
2021/01/27 03:39:14;;;;;;;50.55;18.77;;;;;;;-1.41;82.26;98550.21;1797926;79;20914;-76
2021/01/27 03:41:47;;;;;;;59.55;21.33;;;;;;;-1.41;82.27;98549.41;1797857;79;21461;-76
2021/01/27 03:44:23;;;;;;;47.33;17.90;;;;;;;-1.40;82.25;98551.02;1797844;79;20894;-74
2021/01/27 03:47:07;;;;;;;36.25;15.90;;;;;;;-1.41;82.26;98552.91;1797864;78;21033;-74
2021/01/27 03:49:46;;;;;;;29.98;13.48;;;;;;;-1.40;82.28;98551.02;1805458;79;20940;-74
2021/01/27 03:52:20;;;;;;;24.37;10.90;;;;;;;-1.41;82.26;98550.21;1808065;79;21068;-74
2021/01/27 03:54:59;;;;;;;22.17;10.88;;;;;;;-1.40;82.27;98542.41;1808584;79;22371;-74
2021/01/27 03:57:31;;;;;;;22.40;10.53;;;;;;;-1.41;82.50;98542.67;1808162;79;20956;-75
2021/01/27 03:59:59;;;;;;;23.30;11.20;;;;;;;-1.45;82.55;98542.38;1813549;79;20979;-74
2021/01/27 04:02:27;;;;;;;19.62;8.85;;;;;;;-1.47;82.67;98539.68;1814243;79;21039;-74
2021/01/27 04:04:54;;;;;;;23.95;11.03;;;;;;;-1.48;82.95;98545.60;1814361;78;21482;-75
2021/01/27 04:07:21;;;;;;;22.70;11.03;;;;;;;-1.48;83.13;98544.25;1813974;79;20978;-75
2021/01/27 04:09:49;;;;;;;27.60;12.80;;;;;;;-1.49;83.15;98542.63;1813738;79;21011;-74
2021/01/27 04:12:16;;;;;;;27.85;10.98;;;;;;;-1.48;83.19;98547.48;1813792;79;21624;-75
2021/01/27 04:14:44;;;;;;;26.33;11.18;;;;;;;-1.50;83.35;98550.44;1813671;79;20924;-74
2021/01/27 04:17:28;;;;;;;25.92;12.37;;;;;;;-1.49;83.46;98560.13;1813690;79;20942;-74
2021/01/27 04:19:57;;;;;;;26.42;12.28;;;;;;;-1.51;83.48;98556.08;1813777;79;21585;-74
2021/01/27 04:22:25;;;;;;;29.52;12.63;;;;;;;-1.51;83.57;98558.77;1813754;79;21530;-73
2021/01/27 04:24:53;;;;;;;24.80;12.40;;;;;;;-1.52;83.78;98553.11;1801008;79;20938;-74
2021/01/27 04:27:20;;;;;;;22.00;11.25;;;;;;;-1.55;83.86;98555.79;1800043;79;20997;-75
2021/01/27 04:29:47;;;;;;;24.95;12.40;;;;;;;-1.58;83.85;98550.92;1800167;78;21515;-75
2021/01/27 04:32:15;;;;;;;26.68;12.20;;;;;;;-1.59;83.96;98556.57;1800061;79;21196;-74
2021/01/27 04:34:43;;;;;;;28.32;12.55;;;;;;;-1.59;84.00;98549.84;1800079;78;21571;-74
2021/01/27 04:37:11;;;;;;;26.62;13.15;;;;;;;-1.61;84.14;98556.83;1800114;79;21472;-73
2021/01/27 04:39:38;;;;;;;26.23;13.62;;;;;;;-1.61;84.28;98558.17;1800034;79;21001;-74
2021/01/27 04:42:08;;;;;;;30.85;13.40;;;;;;;-1.61;84.49;98555.48;1800077;79;20929;-74
2021/01/27 04:44:36;;;;;;;29.02;13.68;;;;;;;-1.62;84.71;98556.55;1759687;79;22281;-74
2021/01/27 04:47:28;;;;;;;30.08;14.55;;;;;;;-1.61;84.80;98553.33;1799956;79;20886;-75
2021/01/27 04:50:07;;;;;;;28.98;13.43;;;;;;;-1.61;84.99;98558.71;1800206;79;21036;-75
2021/01/27 04:52:43;;;;;;;30.00;14.63;;;;;;;-1.62;85.35;98556.55;1797944;79;21048;-77
2021/01/27 04:55:41;;;;;;;35.55;15.15;;;;;;;-1.62;85.38;98559.25;1797191;79;21140;-76
2021/01/27 04:58:24;;;;;;;29.77;13.32;;;;;;;-1.63;85.36;98558.97;1798054;79;21194;-76
2021/01/27 05:01:28;;;;;;;35.45;15.38;;;;;;;-1.64;85.49;98556.55;1797926;79;20950;-76
2021/01/27 05:04:31;;;;;;;37.00;15.05;;;;;;;-1.67;85.59;98561.37;1797752;79;21169;-77
2021/01/27 05:07:10;;;;;;;37.80;15.60;;;;;;;-1.69;85.68;98566.20;1813341;79;21003;-75
2021/01/27 05:09:46;;;;;;;31.87;15.35;;;;;;;-1.70;85.77;98574.00;1813112;77;20995;-76
2021/01/27 05:12:15;;;;;;;33.80;14.70;;;;;;;-1.71;85.87;98562.96;1806567;79;21408;-76
2021/01/27 05:14:46;;;;;;;34.50;15.43;;;;;;;-1.72;85.96;98569.41;1799731;79;20921;-75
2021/01/27 05:17:18;;;;;;;36.45;15.45;;;;;;;-1.72;86.05;98581.52;1799667;79;21048;-77
2021/01/27 05:19:48;;;;;;;35.52;14.33;;;;;;;-1.73;86.18;98572.36;1800362;77;21010;-76
2021/01/27 05:22:16;;;;;;;32.48;15.08;;;;;;;-1.73;86.33;98573.70;1807389;79;21474;-74
2021/01/27 05:24:44;;;;;;;38.65;16.25;;;;;;;-1.74;86.33;98578.84;1802307;79;21640;-77
2021/01/27 05:27:36;;;;;;;36.03;15.38;;;;;;;-1.75;86.51;98577.22;1781394;80;20912;-77
2021/01/27 05:30:27;;;;;;;36.93;17.55;;;;;;;-1.74;86.76;98580.19;1702579;84;21068;-75
2021/01/27 05:32:56;;;;;;;35.75;16.25;;;;;;;-1.75;86.71;98581.26;1670743;85;21002;-78
2021/01/27 05:35:38;;;;;;;45.58;17.95;;;;;;;-1.75;86.87;98580.73;1646050;85;21564;-77
2021/01/27 05:38:28;;;;;;;38.50;16.07;;;;;;;-1.74;87.13;98581.00;1673809;85;21228;-78
2021/01/27 05:41:24;;;;;;;33.85;15.20;;;;;;;-1.74;87.11;98581.53;1671055;85;21046;-78
2021/01/27 05:43:56;;;;;;;40.30;16.62;;;;;;;-1.76;87.17;98591.75;1671012;85;21031;-79
2021/01/27 05:46:32;;;;;;;34.08;15.08;;;;;;;-1.76;87.41;98587.71;1645970;85;21237;-78
2021/01/27 05:49:00;;;;;;;35.15;16.20;;;;;;;-1.75;87.42;98603.59;1669642;85;21014;-78
2021/01/27 05:51:34;;;;;;;34.90;16.75;;;;;;;-1.75;87.39;98603.59;1667705;86;21398;-78
2021/01/27 05:54:24;;;;;;;34.23;16.40;;;;;;;-1.75;87.53;98605.48;1667863;86;21582;-79
2021/01/27 05:56:52;;;;;;;34.78;16.23;;;;;;;-1.73;87.70;98611.38;1668770;85;21699;-82
2021/01/27 05:59:24;;;;;;;29.02;14.70;;;;;;;-1.72;87.69;98620.54;1669499;85;21015;-88
2021/01/27 06:01:52;;;;;;;28.25;14.38;;;;;;;-1.73;87.63;98621.61;1670168;85;21615;-80
2021/01/27 06:04:25;;;;;;;33.25;16.15;;;;;;;-1.72;87.99;98623.77;1644739;86;21490;-79
2021/01/27 06:06:58;;;;;;;;;;;;;;;-1.72;88.01;98621.89;1671960;86;21094;-81
2021/01/27 06:09:43;;;;;;;32.93;15.68;;;;;;;-1.72;88.01;98619.73;1652235;85;20230;-81
2021/01/27 06:12:25;;;;;;;36.10;14.85;;;;;;;-1.71;88.20;98625.39;1669790;85;20995;-81
2021/01/27 06:15:10;;;;;;;28.70;13.85;;;;;;;-1.70;88.12;98620.28;1670247;85;21200;-80
2021/01/27 06:17:48;;;;;;;32.85;16.05;;;;;;;-1.71;88.12;98612.74;1669099;85;21209;-78
2021/01/27 06:20:32;;;;;;;31.97;15.97;;;;;;;-1.69;88.36;98620.02;1670752;84;21053;-78
2021/01/27 06:23:36;;;;;;;35.15;15.95;;;;;;;-1.65;88.39;98612.24;1643337;87;21280;-79
2021/01/27 06:26:41;;;;;;;39.00;17.27;;;;;;;-1.65;88.34;98609.55;1642289;86;21544;-80
2021/01/27 06:29:17;;;;;;;55.30;21.80;;;;;;;-1.63;88.53;98614.14;1647581;86;21171;-81
2021/01/27 06:32:23;;;;;;;47.38;20.40;;;;;;;-1.61;88.79;98615.23;1664315;86;21157;-80
2021/01/27 06:35:22;;;;;;;34.13;16.10;;;;;;;-1.58;88.83;98611.48;1664058;86;21671;-79
2021/01/27 06:38:07;;;;;;;45.63;19.05;;;;;;;-1.52;89.18;98611.80;1663972;86;20991;-80
2021/01/27 06:41:07;;;;;;;41.28;18.12;;;;;;;-1.45;89.44;98605.65;1664720;86;21497;-81
2021/01/27 06:44:15;;;;;;;38.80;17.45;;;;;;;-1.40;89.19;98608.37;1661370;86;21212;-82
2021/01/27 06:47:13;;;;;;;48.38;20.82;;;;;;;-1.37;89.02;98607.84;1664088;85;21678;-77
2021/01/27 06:50:08;;;;;;;44.63;19.62;;;;;;;-1.32;89.04;98603.56;1664095;86;21635;-77
2021/01/27 06:52:51;;;;;;;43.08;20.62;;;;;;;-1.29;88.89;98608.42;1664102;86;21185;-78
2021/01/27 06:55:33;;;;;;;52.90;23.10;;;;;;;-1.25;89.00;98609.52;1663589;86;21196;-77
2021/01/27 06:58:21;;;;;;;61.18;26.23;;;;;;;-1.21;89.31;98609.27;1664355;86;21147;-78
2021/01/27 07:01:21;;;;;;;69.22;29.42;;;;;;;-1.18;89.14;98606.06;1664074;86;21215;-79
2021/01/27 07:04:23;;;;;;;63.02;26.05;;;;;;;-1.14;89.02;98603.09;1663830;86;21235;-78
2021/01/27 07:07:09;;;;;;;52.78;23.30;;;;;;;-1.09;89.13;98604.45;1664277;86;21151;-83
2021/01/27 07:10:03;;;;;;;46.02;22.17;;;;;;;-1.07;88.85;98604.47;1649160;86;21198;-77
2021/01/27 07:12:46;;;;;;;48.70;23.00;;;;;;;-1.06;88.60;98598.55;1649465;86;21139;-76
2021/01/27 07:15:36;;;;;;;51.73;22.85;;;;;;;-1.05;88.45;98606.90;1655869;86;21391;-78
2021/01/27 07:18:30;;;;;;;46.35;21.93;;;;;;;-1.03;88.51;98602.06;1637163;86;21148;-76
2021/01/27 07:21:11;;;;;;;43.15;21.62;;;;;;;-0.98;88.43;98602.62;1623907;87;21183;-76
2021/01/27 07:23:51;;;;;;;44.33;20.65;;;;;;;-0.93;88.79;98599.95;1636712;87;21167;-77
2021/01/27 07:26:41;;;;;;;41.48;18.90;;;;;;;-0.92;88.29;98594.30;1624395;86;21189;-79
2021/01/27 07:29:17;;;;;;;43.45;20.23;;;;;;;-0.93;88.31;98600.76;1636583;87;21419;-77
2021/01/27 07:32:13;;;;;;;33.65;17.20;;;;;;;-0.88;88.64;98595.92;1663730;86;21101;-79
2021/01/27 07:34:49;;;;;;;45.05;21.05;;;;;;;-0.85;88.57;98596.74;1663867;86;21025;-79
2021/01/27 07:37:34;;;;;;;41.00;19.85;;;;;;;-0.83;88.39;98602.67;1656519;85;21255;-77
2021/01/27 07:40:16;;;;;;;41.33;19.65;;;;;;;-0.82;88.32;98600.26;1663735;85;21219;-77
2021/01/27 07:42:57;;;;;;;35.88;16.60;;;;;;;-0.82;88.55;98590.28;1640039;87;22148;-78
2021/01/27 07:45:34;;;;;;;38.45;18.85;;;;;;;-0.76;88.64;98589.23;1663644;86;21001;-78
2021/01/27 07:48:23;;;;;;;40.15;19.35;;;;;;;-0.74;88.34;98590.31;1661851;86;21133;-80
2021/01/27 07:51:00;;;;;;;46.15;19.45;;;;;;;-0.71;89.08;98593.82;1638387;87;21166;-81
2021/01/27 07:53:40;;;;;;;42.98;19.12;;;;;;;-0.71;88.66;98589.24;1657923;86;21176;-78
2021/01/27 07:56:21;;;;;;;44.67;19.10;;;;;;;-0.70;88.49;98581.97;1626867;86;21517;-78
2021/01/27 07:59:30;;;;;;;51.55;21.02;;;;;;;-0.69;88.59;98572.80;1650125;86;21191;-80
2021/01/27 08:02:12;;;;;;;45.15;19.67;;;;;;;-0.65;89.01;98585.22;1664322;86;21156;-79
2021/01/27 08:04:49;;;;;;;54.20;21.87;;;;;;;-0.65;88.12;98586.56;1652861;86;21176;-77
2021/01/27 08:07:24;;;;;;;47.05;21.70;;;;;;;-0.70;87.98;98592.21;1663172;86;21152;-78
2021/01/27 08:09:52;;;;;;;44.73;19.70;;;;;;;-0.69;88.10;98589.78;1663831;86;21616;-76
2021/01/27 08:12:33;;;;;;;46.58;21.60;;;;;;;-0.67;88.14;98593.56;1640573;87;21247;-81
2021/01/27 08:15:11;;;;;;;43.30;20.62;;;;;;;-0.65;88.11;98583.87;1660416;86;21048;-78
2021/01/27 08:17:47;;;;;;;45.63;20.17;;;;;;;-0.58;88.20;98597.91;1666090;84;21214;-78
2021/01/27 08:20:31;;;;;;;46.73;21.52;;;;;;;-0.56;88.05;98588.98;1667076;86;21084;-78
2021/01/27 08:23:25;;;;;;;50.75;20.77;;;;;;;-0.51;87.85;98595.73;1664556;86;21278;-76
2021/01/27 08:25:57;;;;;;;50.45;22.40;;;;;;;-0.50;87.98;98598.16;1662395;86;21259;-76
2021/01/27 08:28:42;;;;;;;52.33;20.72;;;;;;;-0.43;87.25;98600.59;1664227;85;21058;-78
2021/01/27 08:33:55;;;;;;;54.10;24.30;;;;;;;-0.32;87.66;98606.83;1865182;76;23360;-85
2021/01/27 08:36:35;;;;;;;62.17;25.68;;;;;;;-0.31;87.42;98616.00;1764831;80;21045;-81
2021/01/27 08:39:09;;;;;;;53.10;24.37;;;;;;;-0.26;86.77;98613.84;1813478;77;20966;-79
2021/01/27 08:41:55;;;;;;;41.65;21.48;;;;;;;-0.26;86.43;98611.14;1789414;80;21030;-78
2021/01/27 08:44:40;;;;;;;44.55;20.17;;;;;;;-0.21;86.36;98613.85;1772658;80;21031;-77
2021/01/27 08:47:25;;;;;;;48.68;22.50;;;;;;;-0.20;85.80;98618.98;1764967;80;21583;-77
2021/01/27 08:49:57;;;;;;;44.18;22.82;;;;;;;-0.20;85.22;98612.77;1767495;80;21727;-81
2021/01/27 08:52:37;;;;;;;47.33;22.07;;;;;;;-0.20;85.20;98606.84;1769855;80;21378;-80
2021/01/27 08:55:35;;;;;;;42.05;20.57;;;;;;;-0.15;85.35;98609.55;1773766;80;20971;-84
2021/01/27 08:58:38;;;;;;;43.30;21.52;;;;;;;-0.10;84.54;98606.84;1770885;80;21041;-84
2021/01/27 09:01:08;;;;;;;;;;;;;;;-0.12;84.19;98601.45;1772622;80;20982;-76
2021/01/27 09:03:51;;;;;;;42.67;19.98;;;;;;;-0.08;84.68;98603.34;1778632;80;20171;-73
2021/01/27 09:06:44;;;;;;;43.52;20.72;;;;;;;-0.04;84.21;98600.38;1774703;80;21193;-78
2021/01/27 09:09:24;;;;;;;42.33;20.37;;;;;;;-0.03;83.58;98593.91;1778065;80;20903;-76
2021/01/27 09:12:06;;;;;;;37.70;19.02;;;;;;;-0.02;83.43;98598.77;1770719;80;21014;-79
2021/01/27 09:14:34;;;;;;;34.80;18.35;;;;;;;-0.01;83.56;98605.23;1750617;81;21100;-79
2021/01/27 09:17:04;;;;;;;40.60;20.40;;;;;;;-0.01;83.19;98610.63;1760142;80;22216;-77
2021/01/27 09:19:33;;;;;;;39.30;18.92;;;;;;;0.00;83.28;98615.48;1771139;80;21569;-77
2021/01/27 09:22:11;;;;;;;38.38;19.07;;;;;;;-0.03;82.91;98610.62;1771262;80;21073;-77
2021/01/27 09:24:47;;;;;;;38.90;18.45;;;;;;;-0.03;82.52;98607.39;1736770;81;21159;-79
2021/01/27 09:27:23;;;;;;;37.50;18.62;;;;;;;-0.06;82.06;98601.73;1740501;81;21053;-77
2021/01/27 09:30:10;;;;;;;38.63;19.00;;;;;;;-0.07;82.70;98602.27;1740103;80;21187;-78
2021/01/27 09:32:39;;;;;;;36.00;18.45;;;;;;;-0.07;82.21;98588.77;1747493;81;21389;-79
2021/01/27 09:35:31;;;;;;;35.90;17.75;;;;;;;-0.08;81.69;98584.45;1748814;81;21199;-81
2021/01/27 09:38:03;;;;;;;37.65;17.80;;;;;;;-0.08;81.97;98575.02;1749244;80;21067;-79
2021/01/27 09:40:35;;;;;;;44.03;19.17;;;;;;;-0.08;81.97;98568.27;1701919;81;21221;-78
2021/01/27 09:43:08;;;;;;;40.90;20.82;;;;;;;-0.03;82.11;98566.92;1726753;81;21167;-81
2021/01/27 09:45:37;;;;;;;43.38;20.15;;;;;;;0.02;82.06;98564.73;1724071;82;21387;-77
2021/01/27 09:48:05;;;;;;;35.85;19.52;;;;;;;0.07;82.03;98559.87;1702594;83;21579;-79
2021/01/27 09:50:37;;;;;;;35.80;17.10;;;;;;;0.06;81.12;98564.46;1756183;81;21141;-80
2021/01/27 09:53:06;;;;;;;31.00;15.90;;;;;;;0.03;80.73;98566.89;1700081;83;21194;-80
2021/01/27 09:55:33;;;;;;;33.50;15.48;;;;;;;-0.03;80.87;98573.67;1727497;81;21206;-76
2021/01/27 09:58:04;;;;;;;34.63;16.40;;;;;;;-0.04;80.61;98576.09;1724505;82;21384;-87
2021/01/27 10:00:37;;;;;;;34.40;17.00;;;;;;;-0.07;80.43;98567.73;1755776;81;21047;-80
2021/01/27 10:03:17;;;;;;;32.42;17.37;;;;;;;-0.08;80.96;98565.58;1727864;83;21147;-83
2021/01/27 10:05:45;;;;;;;33.33;17.42;;;;;;;-0.01;81.79;98564.77;1702745;83;21162;-85
2021/01/27 10:08:27;;;;;;;35.38;16.48;;;;;;;0.00;80.98;98567.70;1727352;83;21159;-85
2021/01/27 10:11:09;;;;;;;38.00;16.62;;;;;;;0.02;80.98;98569.31;1754066;81;21387;-84
2021/01/27 10:13:39;;;;;;;32.45;14.63;;;;;;;0.04;81.26;98564.46;1756166;80;20968;-83
2021/01/27 10:16:11;;;;;;;33.65;17.20;;;;;;;0.02;79.26;98566.63;1756043;81;21059;-87
2021/01/27 10:18:42;;;;;;;36.85;16.67;;;;;;;-0.05;79.54;98567.73;1756257;81;21158;-82
2021/01/27 10:21:13;;;;;;;28.95;13.83;;;;;;;-0.06;80.25;98562.06;1727867;83;21127;-78
2021/01/27 10:23:46;;;;;;;30.95;15.95;;;;;;;-0.05;80.08;98559.64;1749845;81;21335;-78
2021/01/27 10:26:35;;;;;;;29.05;14.07;;;;;;;-0.02;80.29;98560.45;1727389;82;21240;-80
2021/01/27 10:29:23;;;;;;;29.55;14.33;;;;;;;0.04;79.65;98556.36;1714014;82;21216;-81
2021/01/27 10:31:54;;;;;;;32.30;15.00;;;;;;;0.06;79.80;98555.55;1734052;81;21673;-79
2021/01/27 10:34:41;;;;;;;36.15;14.38;;;;;;;0.12;80.06;98548.53;1727715;82;21166;-81
2021/01/27 10:37:44;;;;;;;29.57;14.18;;;;;;;0.17;79.08;98549.06;1746565;80;21876;-83
2021/01/27 10:40:27;;;;;;;31.65;15.03;;;;;;;0.17;79.44;98546.37;1751060;81;21593;-80
2021/01/27 10:42:58;;;;;;;30.43;13.68;;;;;;;0.20;79.44;98544.48;1751170;82;21092;-88
2021/01/27 10:45:42;;;;;;;36.73;16.00;;;;;;;0.26;79.36;98544.73;1751102;81;21550;-85
2021/01/27 10:48:15;;;;;;;31.95;15.05;;;;;;;0.30;79.11;98539.06;1750907;81;21106;-82
2021/01/27 10:50:57;;;;;;;33.85;16.93;;;;;;;0.31;78.55;98542.84;1748697;81;21209;-82
2021/01/27 10:53:28;;;;;;;31.25;14.80;;;;;;;0.31;78.28;98534.73;1706916;82;21200;-82
2021/01/27 10:55:56;;;;;;;27.17;13.32;;;;;;;0.34;78.30;98529.33;1719557;83;20998;-82
2021/01/27 10:58:24;;;;;;;27.58;13.55;;;;;;;0.42;78.18;98532.83;1719568;83;21176;-88
2021/01/27 11:00:51;;;;;;;27.05;12.40;;;;;;;0.44;77.47;98535.25;1719846;83;21216;-88
2021/01/27 11:03:19;;;;;;;32.63;14.25;;;;;;;0.45;76.75;98530.92;1719973;83;21215;-87
2021/01/27 11:05:47;;;;;;;30.25;14.03;;;;;;;0.46;76.47;98527.14;1719610;83;21216;-86
2021/01/27 11:08:23;;;;;;;25.68;13.38;;;;;;;0.48;76.51;98526.87;1733832;82;21704;-87
2021/01/27 11:10:54;;;;;;;24.12;11.97;;;;;;;0.50;76.49;98521.45;1718203;83;21247;-86
2021/01/27 11:13:22;;;;;;;24.60;11.40;;;;;;;0.52;75.19;98522.00;1726148;82;21190;-85
2021/01/27 11:15:49;;;;;;;23.80;12.63;;;;;;;0.47;75.01;98519.85;1750802;82;21348;-84
2021/01/27 11:18:17;;;;;;;31.27;14.20;;;;;;;0.45;75.26;98516.08;1750841;81;21597;-84
2021/01/27 11:20:47;;;;;;;31.20;14.78;;;;;;;0.47;74.73;98519.31;1750847;82;21136;-85
2021/01/27 11:23:16;;;;;;;27.52;14.05;;;;;;;0.44;74.89;98525.80;1750649;81;21126;-85
2021/01/27 11:25:44;;;;;;;29.27;12.65;;;;;;;0.45;75.10;98523.37;1750954;82;21172;-86
2021/01/27 11:28:12;;;;;;;26.55;12.63;;;;;;;0.45;74.67;98526.88;1750856;82;22009;-87
2021/01/27 11:30:40;;;;;;;24.67;12.70;;;;;;;0.44;74.70;98511.76;1723991;82;21636;-88
2021/01/27 11:33:07;;;;;;;30.52;13.98;;;;;;;0.46;74.76;98517.69;1704354;84;21089;-87
2021/01/27 11:35:35;;;;;;;31.23;13.72;;;;;;;0.49;74.94;98517.14;1702673;83;21054;-86
2021/01/27 11:38:02;;;;;;;24.67;10.98;;;;;;;0.53;74.48;98521.45;1707807;82;21675;-90
2021/01/27 11:40:30;;;;;;;24.20;10.80;;;;;;;0.50;74.08;98512.01;1710135;83;21380;-87
2021/01/27 11:42:57;;;;;;;29.80;13.35;;;;;;;0.48;73.82;98518.23;1710289;82;21045;-87
2021/01/27 11:45:25;;;;;;;26.97;12.07;;;;;;;0.46;74.32;98514.99;1709779;82;21076;-93
2021/01/27 11:47:54;;;;;;;27.67;13.75;;;;;;;0.46;73.91;98511.48;1709427;82;21127;-83
2021/01/27 11:50:25;;;;;;;32.25;14.00;;;;;;;0.45;74.15;98509.86;1709814;83;21167;-76
2021/01/27 11:52:53;;;;;;;35.15;14.45;;;;;;;0.45;74.31;98501.77;1709815;82;21599;-76
2021/01/27 11:55:22;;;;;;;25.37;12.07;;;;;;;0.43;74.32;98502.04;1707808;83;21235;-76
2021/01/27 11:57:50;;;;;;;27.30;12.20;;;;;;;0.43;73.84;98498.53;1678563;85;20980;-76
2021/01/27 12:00:20;;;;;;;28.10;12.80;;;;;;;0.36;73.57;98501.52;1706665;84;21144;-76
2021/01/27 12:02:48;;;;;;;28.45;14.07;;;;;;;0.30;74.71;98499.92;1706749;84;21136;-76
2021/01/27 12:05:18;;;;;;;29.27;14.47;;;;;;;0.25;74.85;98497.23;1678463;85;21348;-75
2021/01/27 12:07:45;;;;;;;28.62;14.05;;;;;;;0.17;74.88;98496.44;1706896;84;21176;-77
2021/01/27 12:10:13;;;;;;;28.67;14.00;;;;;;;0.10;75.29;98495.91;1706644;84;21033;-75